Details for Jet2 at EGCC




Go Back


Latest METAR
Local Time

EGCC 280120Z AUTO 02004KT 9999 OVC049 16/11 Q1018 NOSIG

28/05/2018, 02:29:21

Description
Results
Jet2 Logo
Number of Pilots based at EGCC
1 Pilots Based here
Number of Jet2 Flights Departed from EGCC
6 Flights Departed
Number of Jet2 Flights Arrived at EGCC
3 Flights Arrived
Number of Jet2 Schedules Departing from EGCC
65 Schedules
Number of Jet2 Schedules Arriving at EGCC
66 Schedules
Number of Jet2 Schedules Departing from EGCC availible today
20 Schedules Today
Number of Jet2 Schedules Arriving at EGCC availible today
20 Schedules Today
Average Landing Rate at EGCC
-211 fpm
Jet2 Average Landing Rate at EGCC
-205 fpm
Total Fuel Purchased at EGCC by Jet2
38,944.30 kgs / 85,856.60 lbs

Pilots Based at EGCC


Pilot ID
Pilot Name
Pilot Rank
No. of Flights
No. of Flying Hours
Andrew Sutcliffe
371
1405.42
Content